Time;durP1;ratioP1;P1;durP2;ratioP2;P2;SDS_P1;SDS_P2;PMS_P1;PMS_P2;Temp;Humidity;BMP_temperature;BMP_pressure;BME280_temperature;BME280_humidity;BME280_pressure;Samples;Min_cycle;Max_cycle;Signal;HPM_P1;HPM_P2
2024/03/16 00:02:09;;;;;;;0.90;0.90;;;9.20;99.90;;;;;;5031824;28;20513;-71
2024/03/16 00:04:34;;;;;;;1.00;1.00;;;9.20;99.90;;;;;;5031742;28;20185;-71
2024/03/16 00:07:00;;;;;;;0.80;0.80;;;9.20;99.90;;;;;;5031029;28;20216;-72
2024/03/16 00:09:25;;;;;;;2.50;1.20;;;9.20;99.90;;;;;;5031417;28;20178;-72
2024/03/16 00:11:51;;;;;;;0.70;0.70;;;9.20;99.90;;;;;;5031893;28;20181;-71
2024/03/16 00:14:16;;;;;;;5.90;1.10;;;9.20;99.90;;;;;;5031953;28;20166;-72
2024/03/16 00:16:42;;;;;;;1.00;0.90;;;9.20;99.90;;;;;;5031066;28;20221;-71
2024/03/16 00:19:08;;;;;;;0.80;0.80;;;9.20;99.90;;;;;;5033545;28;20272;-72
2024/03/16 00:21:33;;;;;;;0.70;0.70;;;9.20;99.90;;;;;;5041809;28;20261;-72
2024/03/16 00:23:59;;;;;;;1.13;0.90;;;9.30;99.90;;;;;;5031391;28;20186;-72
2024/03/16 00:26:25;;;;;;;0.70;0.70;;;9.30;99.90;;;;;;5046178;22;20876;-70
2024/03/16 00:28:50;;;;;;;2.30;0.77;;;9.40;99.90;;;;;;5031576;28;20244;-70
2024/03/16 00:31:18;;;;;;;1.63;0.60;;;9.30;99.90;;;;;;5014202;28;20944;-70
2024/03/16 00:33:43;;;;;;;1.53;0.50;;;9.30;99.90;;;;;;5031668;28;20166;-70
2024/03/16 00:36:09;;;;;;;0.77;0.67;;;9.30;99.90;;;;;;5037201;28;20541;-70
2024/03/16 00:38:35;;;;;;;1.30;1.30;;;9.20;99.90;;;;;;5050904;28;20187;-70
2024/03/16 00:41:02;;;;;;;0.70;0.70;;;9.20;99.90;;;;;;5052219;28;20231;-70
2024/03/16 00:43:27;;;;;;;0.70;0.70;;;9.20;99.90;;;;;;5045221;28;20172;-70
2024/03/16 00:45:53;;;;;;;0.63;0.60;;;9.10;99.90;;;;;;5071400;28;20490;-70
2024/03/16 00:48:18;;;;;;;1.27;0.87;;;9.10;99.90;;;;;;5056965;28;20180;-70
2024/03/16 00:50:44;;;;;;;0.87;0.83;;;9.10;99.90;;;;;;5061877;28;20223;-71
2024/03/16 00:53:09;;;;;;;1.87;0.90;;;9.10;99.90;;;;;;5055356;28;20245;-70
2024/03/16 00:55:35;;;;;;;0.57;0.57;;;9.10;99.90;;;;;;5055751;28;20204;-71
2024/03/16 00:58:01;;;;;;;1.80;1.07;;;9.00;99.90;;;;;;5054632;28;20184;-71
2024/03/16 01:00:27;;;;;;;0.60;0.60;;;9.00;99.90;;;;;;5055270;28;20621;-70
2024/03/16 01:02:53;;;;;;;2.10;1.10;;;9.00;99.90;;;;;;5063184;28;20522;-70
2024/03/16 01:05:19;;;;;;;1.17;0.70;;;8.90;99.90;;;;;;5058803;28;20514;-70
2024/03/16 01:07:45;;;;;;;2.40;0.70;;;8.90;99.90;;;;;;5036610;28;20190;-70
2024/03/16 01:10:11;;;;;;;1.40;0.83;;;8.90;99.90;;;;;;5055388;28;20424;-70
2024/03/16 01:12:37;;;;;;;0.77;0.77;;;8.90;99.90;;;;;;5054449;28;20750;-70
2024/03/16 01:15:03;;;;;;;2.40;0.60;;;8.80;99.90;;;;;;5054999;28;20419;-71
2024/03/16 01:17:29;;;;;;;1.53;0.80;;;8.80;99.90;;;;;;5054394;28;20189;-70
2024/03/16 01:19:55;;;;;;;0.80;0.80;;;8.90;99.90;;;;;;5054736;28;20964;-70
2024/03/16 01:22:21;;;;;;;0.73;0.73;;;8.90;99.90;;;;;;5055092;28;20242;-70
2024/03/16 01:24:47;;;;;;;0.63;0.63;;;8.90;99.90;;;;;;5054847;28;20499;-69
2024/03/16 01:27:13;;;;;;;0.70;0.70;;;8.90;99.90;;;;;;5054072;28;20602;-70
2024/03/16 01:29:38;;;;;;;1.80;0.60;;;8.90;99.90;;;;;;5054923;28;20166;-70
2024/03/16 01:32:08;;;;;;;1.50;0.70;;;8.80;99.90;;;;;;5063779;28;20934;-70
2024/03/16 01:34:34;;;;;;;1.17;0.80;;;8.80;99.90;;;;;;5056897;28;20177;-71
2024/03/16 01:37:00;;;;;;;1.77;0.70;;;8.80;99.90;;;;;;5055871;28;20444;-70
2024/03/16 01:39:25;;;;;;;1.60;0.70;;;8.80;99.90;;;;;;5054876;28;20165;-70
2024/03/16 01:41:51;;;;;;;0.67;0.60;;;8.80;99.90;;;;;;5054594;28;20424;-70
2024/03/16 01:44:17;;;;;;;0.57;0.57;;;8.80;99.90;;;;;;5054278;28;20173;-70
2024/03/16 01:46:42;;;;;;;1.33;0.80;;;8.80;99.90;;;;;;5053517;28;20220;-70
2024/03/16 01:49:08;;;;;;;1.27;0.90;;;8.80;99.90;;;;;;5054379;28;20174;-70
2024/03/16 01:51:38;;;;;;;1.17;0.70;;;8.80;99.90;;;;;;5059740;28;20670;-70
2024/03/16 01:54:05;;;;;;;1.07;0.50;;;8.80;99.90;;;;;;5065712;28;20783;-70
2024/03/16 01:56:32;;;;;;;1.77;0.80;;;8.80;99.90;;;;;;5067402;28;20467;-70
2024/03/16 01:58:57;;;;;;;1.30;0.73;;;8.80;99.90;;;;;;5054175;28;20434;-70
2024/03/16 02:01:23;;;;;;;0.97;0.87;;;8.80;99.90;;;;;;5054208;28;20905;-70
2024/03/16 02:03:49;;;;;;;1.00;0.90;;;8.80;99.90;;;;;;5056338;28;20260;-70
2024/03/16 02:06:15;;;;;;;1.43;0.80;;;8.80;99.90;;;;;;5041481;28;21080;-71
2024/03/16 02:08:41;;;;;;;2.83;0.90;;;8.80;99.90;;;;;;5059305;28;20920;-71
2024/03/16 02:11:06;;;;;;;2.30;0.60;;;8.80;99.90;;;;;;5073700;28;20180;-71
2024/03/16 02:13:32;;;;;;;1.33;0.87;;;8.80;99.90;;;;;;5057477;28;20708;-71
2024/03/16 02:15:57;;;;;;;0.50;0.50;;;8.80;99.90;;;;;;5035723;28;20593;-71
2024/03/16 02:18:23;;;;;;;1.40;0.90;;;8.80;99.90;;;;;;5053109;28;20196;-71
2024/03/16 02:20:49;;;;;;;0.80;0.80;;;8.80;99.90;;;;;;5050456;28;20194;-71
2024/03/16 02:23:15;;;;;;;1.00;0.70;;;8.80;99.90;;;;;;5046605;28;20545;-71
2024/03/16 02:25:42;;;;;;;0.90;0.80;;;8.80;99.90;;;;;;5053319;28;20678;-70
2024/03/16 02:28:08;;;;;;;0.73;0.73;;;8.80;99.90;;;;;;5052732;28;20423;-70
2024/03/16 02:30:34;;;;;;;1.73;0.90;;;8.80;99.90;;;;;;5053318;28;20420;-70
2024/03/16 02:32:59;;;;;;;1.17;0.80;;;8.80;99.90;;;;;;5053464;28;20170;-70
2024/03/16 02:35:25;;;;;;;2.10;0.87;;;8.80;99.90;;;;;;5065539;28;20185;-70
2024/03/16 02:37:50;;;;;;;0.60;0.60;;;8.80;99.90;;;;;;5069498;28;20673;-70
2024/03/16 02:40:17;;;;;;;1.03;0.60;;;8.80;99.90;;;;;;5053347;28;20190;-70
2024/03/16 02:42:43;;;;;;;1.10;1.00;;;8.80;99.90;;;;;;5053312;28;20166;-70
2024/03/16 02:45:10;;;;;;;1.47;0.80;;;8.80;99.90;;;;;;5052595;28;20451;-70
2024/03/16 02:47:36;;;;;;;1.07;0.73;;;8.80;99.90;;;;;;5052397;28;20487;-70
2024/03/16 02:50:03;;;;;;;1.27;0.60;;;8.80;99.90;;;;;;5052786;28;20455;-70
2024/03/16 02:52:31;;;;;;;0.90;0.70;;;8.80;99.90;;;;;;5052686;28;20252;-71
2024/03/16 02:54:57;;;;;;;1.20;0.80;;;8.80;99.90;;;;;;5053126;28;20450;-71
2024/03/16 02:57:24;;;;;;;0.80;0.80;;;8.80;99.90;;;;;;5057004;28;20459;-71
2024/03/16 02:59:49;;;;;;;0.67;0.67;;;8.80;99.90;;;;;;5056502;28;20435;-70
2024/03/16 03:02:16;;;;;;;1.73;0.60;;;8.70;99.90;;;;;;5053166;28;21153;-70
2024/03/16 03:04:41;;;;;;;0.60;0.60;;;8.70;99.90;;;;;;5052705;28;20166;-70
2024/03/16 03:07:07;;;;;;;1.43;0.80;;;8.70;99.90;;;;;;5051148;28;20520;-70
2024/03/16 03:09:33;;;;;;;0.80;0.80;;;8.80;99.90;;;;;;5051975;28;20256;-70
2024/03/16 03:11:59;;;;;;;0.83;0.77;;;8.80;99.90;;;;;;5052528;28;20255;-70
2024/03/16 03:14:24;;;;;;;2.73;0.57;;;8.80;99.90;;;;;;5052341;28;20436;-70
2024/03/16 03:16:50;;;;;;;3.33;0.77;;;8.80;99.90;;;;;;5054671;28;21016;-70
2024/03/16 03:19:16;;;;;;;2.20;0.80;;;8.80;99.90;;;;;;5051844;28;20354;-70
2024/03/16 03:21:41;;;;;;;1.10;1.00;;;8.80;99.90;;;;;;5053280;28;20265;-70
2024/03/16 03:24:07;;;;;;;1.27;0.70;;;8.80;99.90;;;;;;5052477;28;20669;-70
2024/03/16 03:26:33;;;;;;;0.80;0.77;;;8.80;99.90;;;;;;5051293;28;20209;-70
2024/03/16 03:28:59;;;;;;;2.10;0.93;;;8.80;99.90;;;;;;5051035;28;20182;-69
2024/03/16 03:31:25;;;;;;;0.90;0.90;;;8.80;99.90;;;;;;5060900;28;20654;-69
2024/03/16 03:33:50;;;;;;;1.00;0.63;;;8.80;99.90;;;;;;5057499;28;20508;-70
2024/03/16 03:36:16;;;;;;;1.37;0.87;;;8.90;99.90;;;;;;5054601;28;20580;-69
2024/03/16 03:38:43;;;;;;;0.70;0.70;;;8.90;99.90;;;;;;5031798;28;20597;-70
2024/03/16 03:41:08;;;;;;;1.63;0.80;;;8.90;99.90;;;;;;5059404;28;20833;-71
2024/03/16 03:43:36;;;;;;;3.07;1.90;;;8.90;99.90;;;;;;5049204;28;20505;-70
2024/03/16 03:46:04;;;;;;;1.73;0.93;;;8.90;99.90;;;;;;5057910;28;20220;-70
2024/03/16 03:48:36;;;;;;;1.20;0.70;;;8.90;99.90;;;;;;5064307;28;20510;-71
2024/03/16 03:51:05;;;;;;;1.37;0.70;;;8.90;99.90;;;;;;5059789;28;20994;-70
2024/03/16 03:53:31;;;;;;;0.90;0.73;;;8.90;99.90;;;;;;5031942;28;20405;-69
2024/03/16 03:55:57;;;;;;;0.70;0.70;;;8.90;99.90;;;;;;5051947;28;20512;-70
2024/03/16 03:58:22;;;;;;;1.83;1.00;;;8.80;99.90;;;;;;5058159;28;20647;-70
2024/03/16 04:00:49;;;;;;;2.67;1.13;;;8.90;99.90;;;;;;5060800;28;20205;-70
2024/03/16 04:03:16;;;;;;;2.73;1.83;;;8.90;99.90;;;;;;5050554;28;20173;-70
2024/03/16 04:05:42;;;;;;;0.80;0.77;;;8.90;99.90;;;;;;5057317;28;20487;-70
2024/03/16 04:08:08;;;;;;;1.43;1.20;;;8.90;99.90;;;;;;5053137;28;20482;-70
2024/03/16 04:10:35;;;;;;;11.33;1.10;;;8.90;99.90;;;;;;5037281;28;20424;-69
2024/03/16 04:13:01;;;;;;;2.83;1.13;;;9.00;99.90;;;;;;5049892;28;20857;-70
2024/03/16 04:15:27;;;;;;;3.17;1.40;;;9.00;99.90;;;;;;5051761;28;20440;-69
2024/03/16 04:17:52;;;;;;;1.40;0.90;;;9.00;99.90;;;;;;5058921;28;20443;-69
2024/03/16 04:20:19;;;;;;;1.13;1.03;;;9.00;99.90;;;;;;5053403;28;20173;-69
2024/03/16 04:22:44;;;;;;;1.27;1.17;;;9.10;99.90;;;;;;5054215;28;20174;-70
2024/03/16 04:25:14;;;;;;;2.97;1.13;;;9.10;99.90;;;;;;5050266;28;20435;-69
2024/03/16 04:27:41;;;;;;;1.53;1.10;;;9.10;99.90;;;;;;5053770;28;20205;-70
2024/03/16 04:30:08;;;;;;;1.93;0.90;;;9.20;99.90;;;;;;5059975;28;20436;-70
2024/03/16 04:32:33;;;;;;;3.90;1.00;;;9.20;99.90;;;;;;5048106;28;20412;-71
2024/03/16 04:34:59;;;;;;;0.77;0.70;;;9.20;99.90;;;;;;5051083;28;20474;-70
2024/03/16 04:37:25;;;;;;;2.53;0.90;;;9.20;99.90;;;;;;5051756;28;20541;-70
2024/03/16 04:39:51;;;;;;;5.23;1.23;;;9.30;99.90;;;;;;5051655;28;20440;-70
2024/03/16 04:42:18;;;;;;;2.67;0.90;;;9.30;99.90;;;;;;5040782;28;20270;-70
2024/03/16 04:44:43;;;;;;;2.90;1.37;;;9.20;99.90;;;;;;5058922;28;20455;-70
2024/03/16 04:47:09;;;;;;;1.87;1.50;;;9.10;99.90;;;;;;5059426;28;20935;-70
2024/03/16 04:49:34;;;;;;;1.57;1.13;;;9.10;99.90;;;;;;5050282;28;20169;-71
2024/03/16 04:52:01;;;;;;;2.13;1.10;;;9.00;99.90;;;;;;5062183;28;20208;-71
2024/03/16 04:54:26;;;;;;;2.70;1.27;;;9.00;99.90;;;;;;5039906;28;20666;-70
2024/03/16 04:56:52;;;;;;;1.90;1.80;;;9.00;99.90;;;;;;5057181;28;20459;-70
2024/03/16 04:59:17;;;;;;;1.73;1.20;;;8.90;99.90;;;;;;5058836;28;20194;-70
2024/03/16 05:01:43;;;;;;;2.30;1.23;;;8.90;99.90;;;;;;5051676;28;20182;-70
2024/03/16 05:04:08;;;;;;;1.47;1.00;;;8.90;99.90;;;;;;5057944;28;20177;-70
2024/03/16 05:06:34;;;;;;;3.63;1.10;;;8.90;99.90;;;;;;5056008;28;20208;-70
2024/03/16 05:09:06;;;;;;;2.13;1.67;;;8.90;99.90;;;;;;5044201;28;20541;-70
2024/03/16 05:11:32;;;;;;;1.87;1.13;;;8.80;99.90;;;;;;5050015;28;20213;-69
2024/03/16 05:13:59;;;;;;;2.93;1.63;;;8.80;99.90;;;;;;5056596;28;20964;-70
2024/03/16 05:16:25;;;;;;;2.83;1.33;;;8.80;99.90;;;;;;5049983;28;20447;-70
2024/03/16 05:18:50;;;;;;;1.53;1.43;;;8.80;99.90;;;;;;5050752;28;20847;-70
2024/03/16 05:21:16;;;;;;;2.73;1.50;;;8.80;99.90;;;;;;5052227;28;20277;-70
2024/03/16 05:23:45;;;;;;;2.10;1.40;;;8.80;99.90;;;;;;5055311;28;20177;-71
2024/03/16 05:26:13;;;;;;;2.80;1.60;;;8.80;99.90;;;;;;5051248;28;20205;-70
2024/03/16 05:28:39;;;;;;;1.40;1.30;;;8.80;99.90;;;;;;5058098;28;20474;-69
2024/03/16 05:31:06;;;;;;;2.37;1.67;;;8.80;99.90;;;;;;5051650;28;20462;-69
2024/03/16 05:33:31;;;;;;;2.77;2.10;;;8.80;99.90;;;;;;5062857;28;20607;-70
2024/03/16 05:35:58;;;;;;;2.73;2.17;;;8.80;99.90;;;;;;5050871;28;20558;-70
2024/03/16 05:38:24;;;;;;;3.17;2.20;;;8.90;99.90;;;;;;5063489;28;20527;-69
2024/03/16 05:40:49;;;;;;;1.90;1.30;;;8.90;99.90;;;;;;5066078;28;20499;-69
2024/03/16 05:43:15;;;;;;;2.13;1.70;;;8.90;99.90;;;;;;5064792;28;20185;-70
2024/03/16 05:45:41;;;;;;;1.93;1.57;;;8.90;99.90;;;;;;5039869;28;20221;-70
2024/03/16 05:48:07;;;;;;;3.60;1.20;;;8.90;99.90;;;;;;5052154;28;20179;-70
2024/03/16 05:50:33;;;;;;;1.60;1.43;;;8.90;99.90;;;;;;5042861;28;20431;-69
2024/03/16 05:52:59;;;;;;;1.77;1.40;;;8.90;99.90;;;;;;5064465;28;20177;-70
2024/03/16 05:55:25;;;;;;;1.70;1.10;;;8.90;99.90;;;;;;5058784;28;20485;-70
2024/03/16 05:57:50;;;;;;;2.23;0.93;;;8.90;99.90;;;;;;5057056;28;20670;-70
2024/03/16 06:00:18;;;;;;;2.60;0.80;;;8.90;99.90;;;;;;5053467;28;20242;-70
2024/03/16 06:02:43;;;;;;;2.33;1.50;;;8.90;99.90;;;;;;5055718;28;20199;-71
2024/03/16 06:05:09;;;;;;;2.03;1.50;;;8.90;99.90;;;;;;5053643;28;20505;-70
2024/03/16 06:07:35;;;;;;;1.20;0.90;;;9.00;99.90;;;;;;5058132;28;20205;-69
2024/03/16 06:10:00;;;;;;;3.20;1.10;;;9.10;99.90;;;;;;5055325;28;20424;-69
2024/03/16 06:12:30;;;;;;;2.30;1.47;;;9.10;99.90;;;;;;5061456;28;20189;-69
2024/03/16 06:14:56;;;;;;;2.57;1.20;;;9.10;99.90;;;;;;5058924;28;20235;-69
2024/03/16 06:17:22;;;;;;;1.83;0.90;;;9.10;99.90;;;;;;5055599;28;20491;-70
2024/03/16 06:19:49;;;;;;;2.33;0.93;;;9.10;99.90;;;;;;5052042;28;20181;-70
2024/03/16 06:22:15;;;;;;;1.00;0.90;;;9.20;99.90;;;;;;5046500;28;20331;-70
2024/03/16 06:24:42;;;;;;;1.77;1.20;;;9.20;99.90;;;;;;5052764;28;20940;-70
2024/03/16 06:27:10;;;;;;;9.53;1.10;;;9.20;99.90;;;;;;5047267;22;20754;-69
2024/03/16 06:29:36;;;;;;;1.07;0.97;;;9.10;99.90;;;;;;5013974;28;20844;-68
2024/03/16 06:32:07;;;;;;;3.70;0.73;;;9.10;99.90;;;;;;5035011;28;20437;-68
2024/03/16 06:34:33;;;;;;;3.93;0.90;;;9.10;99.90;;;;;;5043610;28;20243;-69
2024/03/16 06:36:59;;;;;;;3.43;1.27;;;9.20;99.90;;;;;;5042402;28;20501;-69
2024/03/16 06:39:25;;;;;;;2.70;0.80;;;9.20;99.90;;;;;;5043984;28;21133;-68
2024/03/16 06:41:51;;;;;;;1.50;1.00;;;9.20;99.90;;;;;;5053135;28;20181;-69
2024/03/16 06:44:17;;;;;;;1.30;1.20;;;9.20;99.90;;;;;;5041711;28;20436;-68
2024/03/16 06:46:42;;;;;;;1.53;0.60;;;9.30;99.90;;;;;;5047081;28;20209;-69
2024/03/16 06:49:08;;;;;;;1.43;1.00;;;9.50;99.90;;;;;;5040753;28;20447;-69
2024/03/16 06:51:34;;;;;;;0.93;0.70;;;9.60;99.90;;;;;;5046767;28;20661;-69
2024/03/16 06:54:00;;;;;;;1.83;1.00;;;9.60;99.90;;;;;;5037473;28;20174;-68
2024/03/16 06:56:26;;;;;;;1.30;0.80;;;9.60;99.90;;;;;;5031665;28;20487;-70
2024/03/16 06:58:51;;;;;;;1.63;0.60;;;9.60;99.90;;;;;;5020815;28;20193;-69
2024/03/16 07:01:18;;;;;;;1.30;1.20;;;9.60;99.90;;;;;;5036230;28;20659;-69
2024/03/16 07:03:44;;;;;;;2.53;1.17;;;9.60;99.90;;;;;;5042588;28;20178;-69
2024/03/16 07:06:09;;;;;;;1.90;0.93;;;9.50;99.90;;;;;;5043759;28;20471;-69
2024/03/16 07:08:38;;;;;;;2.90;1.13;;;9.50;99.90;;;;;;5037934;28;20188;-69
2024/03/16 07:11:04;;;;;;;1.80;0.67;;;9.50;99.90;;;;;;5028266;28;20185;-69
2024/03/16 07:13:30;;;;;;;4.97;2.20;;;9.50;99.90;;;;;;5033961;28;20475;-70
2024/03/16 07:15:56;;;;;;;0.97;0.97;;;9.60;99.90;;;;;;5039904;28;20515;-69
2024/03/16 07:18:22;;;;;;;2.07;0.90;;;9.60;99.90;;;;;;5048053;28;20523;-68
2024/03/16 07:20:47;;;;;;;3.20;1.17;;;9.70;99.90;;;;;;5019651;28;20202;-69
2024/03/16 07:23:13;;;;;;;3.63;2.50;;;9.80;99.90;;;;;;5041376;28;20174;-69
2024/03/16 07:25:41;;;;;;;2.67;1.50;;;9.90;99.90;;;;;;5035919;28;20170;-69
2024/03/16 07:28:07;;;;;;;1.60;1.50;;;9.90;99.90;;;;;;5044680;28;20482;-70
2024/03/16 07:30:34;;;;;;;2.20;1.67;;;9.90;99.90;;;;;;5038970;28;20514;-69
2024/03/16 07:33:00;;;;;;;1.30;1.20;;;9.90;99.90;;;;;;5035375;28;20433;-69
2024/03/16 07:35:27;;;;;;;5.93;2.30;;;9.90;99.90;;;;;;5040407;28;20480;-69
2024/03/16 07:37:54;;;;;;;3.00;2.03;;;10.00;99.90;;;;;;5041446;28;20194;-68
2024/03/16 07:40:21;;;;;;;4.97;1.93;;;10.10;99.90;;;;;;5044785;28;20482;-68
2024/03/16 07:42:47;;;;;;;2.97;2.10;;;10.20;99.90;;;;;;5038866;28;20431;-70
2024/03/16 07:45:14;;;;;;;3.03;2.00;;;10.20;99.90;;;;;;5039200;28;20433;-69
2024/03/16 07:47:40;;;;;;;5.90;2.10;;;10.30;99.90;;;;;;5050021;28;20209;-69
2024/03/16 07:50:06;;;;;;;4.30;2.10;;;10.20;99.90;;;;;;5040130;28;20832;-69
2024/03/16 07:52:33;;;;;;;2.40;2.20;;;10.30;99.90;;;;;;5040090;28;20239;-70
2024/03/16 07:54:59;;;;;;;3.97;2.33;;;10.50;99.90;;;;;;5035556;28;20506;-69
2024/03/16 07:57:27;;;;;;;4.83;1.90;;;10.60;99.90;;;;;;5040497;28;20471;-70
2024/03/16 07:59:52;;;;;;;5.53;3.23;;;10.60;99.90;;;;;;5039377;28;20436;-70
2024/03/16 08:02:18;;;;;;;2.50;1.80;;;10.80;99.90;;;;;;5044745;28;20505;-69
2024/03/16 08:04:43;;;;;;;2.23;1.87;;;10.80;99.90;;;;;;5038801;28;20260;-70
2024/03/16 08:07:09;;;;;;;3.77;1.90;;;10.70;99.90;;;;;;5040174;28;20241;-69
2024/03/16 08:09:34;;;;;;;2.43;1.70;;;10.70;99.90;;;;;;5036489;28;20675;-69
2024/03/16 08:12:00;;;;;;;2.00;1.10;;;10.70;99.90;;;;;;5039538;28;20181;-69
2024/03/16 08:14:31;;;;;;;1.53;1.33;;;10.80;99.90;;;;;;5042018;28;20184;-70
2024/03/16 08:16:56;;;;;;;2.97;2.20;;;10.90;99.90;;;;;;5049907;28;20241;-69
2024/03/16 08:19:22;;;;;;;1.90;1.40;;;10.90;99.90;;;;;;5050828;28;20428;-70
2024/03/16 08:21:48;;;;;;;2.10;1.60;;;10.70;99.90;;;;;;5044141;28;20585;-68
2024/03/16 08:24:16;;;;;;;2.73;1.73;;;10.60;99.90;;;;;;5050073;28;20666;-68
2024/03/16 08:26:41;;;;;;;2.17;1.43;;;10.50;99.90;;;;;;5038368;28;20847;-68
2024/03/16 08:29:07;;;;;;;1.60;1.50;;;10.50;99.90;;;;;;5043090;28;20432;-70
2024/03/16 08:31:33;;;;;;;1.90;1.60;;;10.50;99.90;;;;;;5043390;28;20176;-69
2024/03/16 08:33:58;;;;;;;3.00;1.77;;;10.60;99.90;;;;;;5042340;28;20429;-69
2024/03/16 08:36:24;;;;;;;8.70;2.43;;;10.70;99.90;;;;;;5031344;28;20563;-71
2024/03/16 08:38:49;;;;;;;2.63;1.70;;;10.80;99.90;;;;;;5031452;28;20682;-69
2024/03/16 08:41:15;;;;;;;2.50;1.80;;;10.80;99.90;;;;;;5026999;28;20555;-69
2024/03/16 08:43:40;;;;;;;2.70;1.30;;;10.80;99.90;;;;;;5031816;28;20178;-71
2024/03/16 08:46:06;;;;;;;4.03;1.40;;;10.80;99.90;;;;;;5032539;28;20216;-69
2024/03/16 08:48:32;;;;;;;1.20;1.10;;;11.00;99.90;;;;;;5043631;28;20196;-69
2024/03/16 08:50:59;;;;;;;2.60;2.40;;;11.20;99.90;;;;;;5049806;28;20235;-69
2024/03/16 08:53:26;;;;;;;2.60;1.27;;;11.60;99.90;;;;;;5039517;28;20528;-69
2024/03/16 08:55:56;;;;;;;2.20;1.10;;;11.60;99.90;;;;;;5032676;28;20441;-70
2024/03/16 08:58:24;;;;;;;1.50;1.00;;;11.50;99.90;;;;;;5039517;28;20428;-69
2024/03/16 09:00:51;;;;;;;1.20;1.10;;;11.70;99.90;;;;;;5041223;28;20432;-70
2024/03/16 09:03:17;;;;;;;1.10;0.83;;;12.50;99.90;;;;;;5023183;28;20796;-70
2024/03/16 09:05:42;;;;;;;0.93;0.80;;;12.90;99.90;;;;;;5036179;28;20491;-70
2024/03/16 09:08:08;;;;;;;2.77;1.40;;;12.80;99.90;;;;;;5048966;28;20194;-69
2024/03/16 09:10:33;;;;;;;2.03;1.17;;;12.40;99.90;;;;;;5047597;28;20231;-69
2024/03/16 09:12:59;;;;;;;1.13;1.00;;;11.90;99.90;;;;;;5019020;28;20223;-70
2024/03/16 09:15:24;;;;;;;0.83;0.83;;;11.60;99.90;;;;;;5036379;28;20183;-69
2024/03/16 09:17:50;;;;;;;1.73;1.13;;;11.50;99.90;;;;;;5041739;28;20213;-70
2024/03/16 09:20:15;;;;;;;1.00;0.90;;;11.60;99.90;;;;;;5054628;28;20556;-72
2024/03/16 09:22:42;;;;;;;1.00;1.00;;;11.80;99.90;;;;;;5045574;28;20877;-70
2024/03/16 09:25:08;;;;;;;2.10;1.50;;;11.90;99.90;;;;;;5041388;28;20266;-69
2024/03/16 09:27:34;;;;;;;2.20;1.37;;;11.90;99.90;;;;;;5036902;28;20471;-69
2024/03/16 09:30:00;;;;;;;2.60;2.40;;;12.00;99.90;;;;;;5035122;28;20466;-68
2024/03/16 09:32:26;;;;;;;3.10;1.70;;;12.40;99.90;;;;;;5038443;28;20432;-68
2024/03/16 09:34:52;;;;;;;1.50;1.40;;;12.80;99.90;;;;;;5048003;28;20439;-69
2024/03/16 09:37:18;;;;;;;0.80;0.80;;;13.60;99.90;;;;;;5039664;28;20203;-69
2024/03/16 09:39:43;;;;;;;1.90;1.37;;;14.30;99.90;;;;;;5046201;28;20185;-70
2024/03/16 09:42:12;;;;;;;1.33;1.23;;;14.70;99.90;;;;;;5047728;28;20202;-69
2024/03/16 09:44:38;;;;;;;3.13;1.73;;;15.80;99.90;;;;;;5043724;28;20670;-70
2024/03/16 09:47:16;;;;;;;2.20;1.30;;;17.30;99.90;;;;;;5052216;28;20502;-70
2024/03/16 09:49:42;;;;;;;1.20;1.20;;;17.40;99.90;;;;;;5039859;28;20934;-69
2024/03/16 09:52:12;;;;;;;2.47;1.30;;;16.50;99.90;;;;;;5033281;28;20433;-69
2024/03/16 09:54:40;;;;;;;3.13;1.47;;;16.30;99.90;;;;;;5047380;28;20261;-70
2024/03/16 09:57:14;;;;;;;3.03;1.70;;;16.00;99.90;;;;;;5038285;28;20480;-69
2024/03/16 09:59:47;;;;;;;1.23;0.90;;;16.30;99.90;;;;;;5037040;28;20488;-69
2024/03/16 10:02:19;;;;;;;1.60;1.17;;;16.90;99.90;;;;;;5036891;28;20417;-70
2024/03/16 10:04:48;;;;;;;1.23;1.13;;;18.30;99.90;;;;;;5034565;28;20440;-70
2024/03/16 10:07:14;;;;;;;1.13;1.10;;;19.30;99.90;;;;;;5041397;28;20469;-70
2024/03/16 10:09:58;;;;;;;1.53;1.10;;;20.10;99.90;;;;;;5036036;28;20443;-70
2024/03/16 10:12:24;;;;;;;0.87;0.83;;;20.30;99.90;;;;;;5023313;28;20486;-69
2024/03/16 10:15:09;;;;;;;1.47;0.80;;;21.30;99.90;;;;;;5045022;28;20443;-70
2024/03/16 10:17:37;;;;;;;1.20;1.10;;;20.00;99.90;;;;;;5037478;28;20441;-67
2024/03/16 10:20:16;;;;;;;0.90;0.90;;;18.00;99.90;;;;;;5036133;28;20424;-67
2024/03/16 10:22:45;;;;;;;0.90;0.80;;;16.50;99.90;;;;;;5042780;28;20796;-70
2024/03/16 10:25:11;;;;;;;1.70;1.60;;;16.20;99.90;;;;;;5046857;28;20448;-70
2024/03/16 10:27:40;;;;;;;1.77;0.90;;;15.40;99.90;;;;;;5041359;28;20473;-70
2024/03/16 10:30:11;;;;;;;1.77;1.30;;;14.90;99.90;;;;;;5046289;28;20443;-68
2024/03/16 10:32:37;;;;;;;1.20;1.13;;;14.90;99.90;;;;;;5038553;28;20800;-68
2024/03/16 10:35:11;;;;;;;0.70;0.70;;;14.90;99.90;;;;;;5051528;28;20424;-69
2024/03/16 10:37:38;;;;;;;1.23;0.80;;;15.50;99.90;;;;;;5036683;28;21008;-69
2024/03/16 10:40:13;;;;;;;1.00;1.00;;;15.30;99.90;;;;;;5047049;28;20440;-69
2024/03/16 10:42:42;;;;;;;0.83;0.83;;;14.60;99.90;;;;;;5028685;28;20440;-70
2024/03/16 10:45:09;;;;;;;1.00;1.00;;;14.00;99.90;;;;;;5038346;28;20425;-69
2024/03/16 10:47:34;;;;;;;3.70;0.97;;;13.70;99.90;;;;;;5016558;28;20465;-69
2024/03/16 10:50:00;;;;;;;1.00;1.00;;;13.60;99.90;;;;;;5043830;28;20435;-70
2024/03/16 10:52:27;;;;;;;1.33;1.23;;;13.50;99.90;;;;;;5039632;28;20237;-70
2024/03/16 10:54:53;;;;;;;1.07;1.00;;;13.70;99.90;;;;;;5047334;28;20169;-69
2024/03/16 10:57:19;;;;;;;1.33;0.83;;;13.80;99.90;;;;;;5023063;28;20510;-68
2024/03/16 10:59:48;;;;;;;0.90;0.90;;;13.70;99.90;;;;;;5042226;28;20515;-68
2024/03/16 11:02:18;;;;;;;0.70;0.70;;;13.70;99.90;;;;;;5039795;28;20186;-69
2024/03/16 11:04:52;;;;;;;0.80;0.80;;;13.80;99.90;;;;;;5028459;28;20573;-68
2024/03/16 11:07:19;;;;;;;1.33;1.00;;;13.90;99.90;;;;;;5036687;28;20475;-68
2024/03/16 11:09:44;;;;;;;1.47;1.37;;;13.90;99.90;;;;;;5041111;28;20428;-68
2024/03/16 11:12:33;;;;;;;0.70;0.70;;;14.20;99.90;;;;;;5025953;28;20483;-68
2024/03/16 11:15:40;;;;;;;0.87;0.87;;;15.40;99.90;;;;;;5044609;28;20170;-69
2024/03/16 11:18:21;;;;;;;0.60;0.60;;;16.50;99.90;;;;;;5043179;28;20510;-69
2024/03/16 11:20:57;;;;;;;4.17;1.13;;;18.80;99.90;;;;;;5053558;28;20419;-69
2024/03/16 11:23:24;;;;;;;1.50;1.40;;;20.50;99.90;;;;;;5039578;28;20996;-67
2024/03/16 11:25:50;;;;;;;1.40;1.20;;;19.70;99.90;;;;;;5034098;28;20457;-68
2024/03/16 11:28:17;;;;;;;0.97;0.87;;;20.30;99.90;;;;;;5016501;28;20491;-68
2024/03/16 11:30:44;;;;;;;1.30;1.20;;;20.40;99.90;;;;;;5034268;28;20495;-68
2024/03/16 11:33:21;;;;;;;1.20;1.10;;;21.10;99.90;;;;;;5033432;28;20417;-69
2024/03/16 11:35:47;;;;;;;2.70;2.40;;;21.60;97.30;;;;;;5033361;28;20423;-68
2024/03/16 11:38:16;;;;;;;2.30;2.10;;;21.80;94.20;;;;;;5032520;28;20520;-69
2024/03/16 11:40:47;;;;;;;1.20;1.13;;;22.00;93.60;;;;;;5033383;28;20655;-69
2024/03/16 11:43:13;;;;;;;0.97;0.87;;;21.20;94.30;;;;;;5034673;28;20986;-69
2024/03/16 11:45:46;;;;;;;1.77;1.67;;;20.30;97.80;;;;;;5041123;28;20504;-68
2024/03/16 11:48:11;;;;;;;1.93;1.43;;;19.30;99.90;;;;;;5014895;28;20827;-68
2024/03/16 11:50:37;;;;;;;2.27;1.43;;;18.30;99.90;;;;;;5033197;28;20467;-67
2024/03/16 11:53:09;;;;;;;1.20;1.07;;;17.70;99.90;;;;;;5032863;28;20478;-67
2024/03/16 11:55:36;;;;;;;1.00;1.00;;;18.20;99.90;;;;;;5033075;28;20178;-69
2024/03/16 11:58:05;;;;;;;1.67;1.30;;;19.00;99.90;;;;;;5031851;28;20463;-69
2024/03/16 12:00:31;;;;;;;1.03;1.00;;;19.20;99.90;;;;;;5032808;28;20429;-68
2024/03/16 12:03:00;;;;;;;1.00;1.00;;;18.80;99.90;;;;;;5032791;28;20427;-68
2024/03/16 12:05:27;;;;;;;1.53;1.43;;;18.60;99.90;;;;;;5036840;28;20458;-68
2024/03/16 12:07:56;;;;;;;1.70;1.60;;;18.60;99.90;;;;;;5040359;28;20526;-69
2024/03/16 12:10:25;;;;;;;1.33;1.23;;;18.20;99.90;;;;;;5013197;28;20891;-68
2024/03/16 12:12:51;;;;;;;1.50;1.50;;;18.80;99.90;;;;;;5014917;28;20440;-68
2024/03/16 12:15:19;;;;;;;1.17;1.10;;;19.20;99.90;;;;;;5032512;28;20925;-68
2024/03/16 12:17:46;;;;;;;1.30;1.20;;;20.30;99.70;;;;;;5031816;28;20259;-67
2024/03/16 12:20:12;;;;;;;1.83;1.43;;;20.00;98.30;;;;;;5039730;28;20522;-68
2024/03/16 12:22:47;;;;;;;1.60;1.50;;;18.70;99.90;;;;;;5046396;28;20428;-69
2024/03/16 12:25:13;;;;;;;1.40;1.30;;;17.80;99.90;;;;;;5032799;28;20432;-67
2024/03/16 12:27:49;;;;;;;1.90;1.80;;;17.80;99.90;;;;;;5051726;22;20576;-68
2024/03/16 12:30:14;;;;;;;1.87;1.20;;;17.80;99.90;;;;;;5029404;28;20184;-70
2024/03/16 12:32:41;;;;;;;1.33;1.23;;;17.40;99.90;;;;;;5019678;28;20417;-69
2024/03/16 12:35:09;;;;;;;1.23;1.13;;;16.90;99.90;;;;;;5019831;28;20174;-68
2024/03/16 12:37:35;;;;;;;1.20;1.10;;;16.80;99.90;;;;;;5017963;28;20454;-70
2024/03/16 12:40:00;;;;;;;1.30;1.20;;;17.20;99.90;;;;;;5015108;28;20529;-70
2024/03/16 12:42:26;;;;;;;1.37;1.30;;;17.00;99.90;;;;;;5025068;28;20420;-68
2024/03/16 12:44:51;;;;;;;1.43;1.20;;;16.90;99.90;;;;;;5019788;28;20566;-71
2024/03/16 12:47:17;;;;;;;1.13;1.13;;;18.20;99.90;;;;;;5022801;28;20215;-68
2024/03/16 12:49:44;;;;;;;1.10;1.00;;;19.00;99.90;;;;;;5026236;28;20706;-68
2024/03/16 12:52:12;;;;;;;3.80;1.70;;;18.60;99.90;;;;;;5018854;28;20171;-68